Time;durP1;ratioP1;P1;durP2;ratioP2;P2;SDS_P1;SDS_P2;PMS_P1;PMS_P2;Temp;Humidity;BMP_temperature;BMP_pressure;BME280_temperature;BME280_humidity;BME280_pressure;Samples;Min_cycle;Max_cycle;Signal;HPM_P1;HPM_P2
2022/02/26 00:00:28;;;;;;;;;;;0.40;99.90;;;;;;5072659;28;19913;-73
2022/02/26 00:02:53;;;;;;;;;;;0.40;99.90;;;;;;5075107;28;19994;-74
2022/02/26 00:05:19;;;;;;;;;;;0.40;99.90;;;;;;5073143;28;19998;-74
2022/02/26 00:07:44;;;;;;;;;;;0.40;99.90;;;;;;5073113;28;20004;-75
2022/02/26 00:10:10;;;;;;;;;;;0.30;99.90;;;;;;5073221;28;20343;-73
2022/02/26 00:12:35;;;;;;;;;;;0.30;99.90;;;;;;5072733;28;19912;-74
2022/02/26 00:15:01;;;;;;;;;;;0.30;99.90;;;;;;5072785;28;19909;-74
2022/02/26 00:17:26;;;;;;;;;;;0.50;99.90;;;;;;5072838;28;19916;-74
2022/02/26 00:19:52;;;;;;;;;;;0.50;99.90;;;;;;5073114;28;19947;-74
2022/02/26 00:22:17;;;;;;;;;;;0.50;99.90;;;;;;5072977;28;20118;-74
2022/02/26 00:24:43;;;;;;;;;;;0.40;99.90;;;;;;5072682;28;19908;-75
2022/02/26 00:27:08;;;;;;;;;;;0.40;99.90;;;;;;5072707;28;19908;-73
2022/02/26 00:29:34;;;;;;;;;;;0.50;99.90;;;;;;5071618;28;19905;-74
2022/02/26 00:32:01;;;;;;;;;;;0.50;99.90;;;;;;5077562;28;19909;-74
2022/02/26 00:34:27;;;;;;;;;;;0.20;99.90;;;;;;5067118;28;19908;-71
2022/02/26 00:36:53;;;;;;;;;;;0.00;99.90;;;;;;5072576;28;20218;-72
2022/02/26 00:39:19;;;;;;;;;;;0.00;99.90;;;;;;5072663;28;19915;-72
2022/02/26 00:41:44;;;;;;;;;;;-0.10;99.90;;;;;;5070660;28;20411;-72
2022/02/26 00:44:10;;;;;;;;;;;0.20;99.90;;;;;;5070190;28;20003;-72
2022/02/26 00:46:35;;;;;;;;;;;0.20;99.90;;;;;;5069810;28;19909;-72
2022/02/26 00:51:45;;;;;;;;;;;0.50;99.90;;;;;;5064790;28;20368;-75
2022/02/26 00:54:10;;;;;;;;;;;0.60;99.90;;;;;;5069491;28;19909;-72
2022/02/26 00:56:36;;;;;;;;;;;0.60;99.90;;;;;;5071092;28;19982;-72
2022/02/26 00:59:01;;;;;;;;;;;0.80;99.90;;;;;;5063259;28;20419;-73
2022/02/26 01:01:27;;;;;;;;;;;0.80;99.90;;;;;;5072547;28;19918;-73
2022/02/26 01:03:52;;;;;;;;;;;0.80;99.90;;;;;;5072440;28;20288;-73
2022/02/26 01:06:18;;;;;;;;;;;0.90;99.90;;;;;;5072651;28;19908;-73
2022/02/26 01:08:43;;;;;;;;;;;1.00;99.90;;;;;;5072956;28;20300;-73
2022/02/26 01:11:09;;;;;;;;;;;1.00;99.90;;;;;;5072741;28;20284;-73
2022/02/26 01:13:34;;;;;;;;;;;1.00;99.90;;;;;;5072307;28;19908;-72
2022/02/26 01:16:00;;;;;;;;;;;1.00;99.90;;;;;;5072285;28;19923;-73
2022/02/26 01:18:25;;;;;;;;;;;1.00;99.90;;;;;;5072538;28;19908;-73
2022/02/26 01:20:51;;;;;;;;;;;1.00;99.90;;;;;;5072412;28;19915;-72
2022/02/26 01:23:16;;;;;;;;;;;1.00;99.90;;;;;;5071906;28;19939;-73
2022/02/26 01:25:42;;;;;;;;;;;1.00;99.90;;;;;;5072368;28;19915;-73
2022/02/26 01:28:07;;;;;;;;;;;1.00;99.90;;;;;;5072196;28;19935;-73
2022/02/26 01:30:33;;;;;;;;;;;0.90;99.90;;;;;;5076727;28;19916;-73
2022/02/26 01:32:58;;;;;;;;;;;1.10;99.90;;;;;;5074496;28;19962;-72
2022/02/26 01:35:24;;;;;;;;;;;1.10;99.90;;;;;;5072372;28;19959;-73
2022/02/26 01:37:50;;;;;;;;;;;1.10;99.90;;;;;;5071893;28;19919;-73
2022/02/26 01:40:15;;;;;;;;;;;1.10;99.90;;;;;;5071951;28;20335;-73
2022/02/26 01:42:41;;;;;;;;;;;1.10;99.90;;;;;;5072025;28;19909;-73
2022/02/26 01:45:11;;;;;;;;;;;1.10;99.90;;;;;;5071434;28;20385;-73
2022/02/26 01:47:37;;;;;;;;;;;1.10;99.90;;;;;;5072002;28;20008;-72
2022/02/26 01:50:03;;;;;;;;;;;1.20;99.90;;;;;;5071716;28;19951;-73
2022/02/26 01:52:28;;;;;;;;;;;1.20;99.90;;;;;;5070384;28;19916;-73
2022/02/26 01:54:54;;;;;;;;;;;1.10;99.90;;;;;;5071663;28;19931;-73
2022/02/26 01:57:19;;;;;;;;;;;1.10;99.90;;;;;;5071466;28;19913;-73
2022/02/26 01:59:45;;;;;;;;;;;1.10;99.90;;;;;;5069533;28;19963;-73
2022/02/26 02:02:10;;;;;;;;;;;1.00;99.90;;;;;;5071470;28;19909;-73
2022/02/26 02:04:36;;;;;;;;;;;1.10;99.90;;;;;;5071598;28;19909;-73
2022/02/26 02:07:02;;;;;;;;;;;1.10;99.90;;;;;;5071669;28;20003;-72
2022/02/26 02:09:27;;;;;;;;;;;1.00;99.90;;;;;;5070445;28;20337;-73
2022/02/26 02:11:53;;;;;;;;;;;1.00;99.90;;;;;;5071755;28;19915;-73
2022/02/26 02:14:18;;;;;;;;;;;1.00;99.90;;;;;;5071441;28;19932;-73
2022/02/26 02:16:44;;;;;;;;;;;1.00;99.90;;;;;;5071539;28;20384;-72
2022/02/26 02:19:11;;;;;;;;;;;1.00;99.90;;;;;;5071012;28;20220;-73
2022/02/26 02:21:38;;;;;;;;;;;0.90;99.90;;;;;;5071408;28;20340;-73
2022/02/26 02:24:04;;;;;;;;;;;0.90;99.90;;;;;;5071434;28;19920;-73
2022/02/26 02:26:31;;;;;;;;;;;0.90;99.90;;;;;;5071577;28;19908;-72
2022/02/26 02:28:58;;;;;;;;;;;0.90;99.90;;;;;;5069256;28;19909;-73
2022/02/26 02:31:24;;;;;;;;;;;0.90;99.90;;;;;;5071293;28;19908;-73
2022/02/26 02:33:50;;;;;;;;;;;0.90;99.90;;;;;;5071253;28;19909;-73
2022/02/26 02:36:15;;;;;;;;;;;1.00;99.90;;;;;;5070042;28;19915;-73
2022/02/26 02:38:41;;;;;;;;;;;1.00;99.90;;;;;;5071437;28;19909;-73
2022/02/26 02:41:06;;;;;;;;;;;0.90;99.90;;;;;;5071454;28;20313;-72
2022/02/26 02:43:32;;;;;;;;;;;0.90;99.90;;;;;;5071132;28;19916;-73
2022/02/26 02:45:58;;;;;;;;;;;0.90;99.90;;;;;;5071443;28;19982;-73
2022/02/26 02:48:23;;;;;;;;;;;1.00;99.90;;;;;;5070535;28;19942;-73
2022/02/26 02:50:49;;;;;;;;;;;0.90;99.90;;;;;;5071288;28;19962;-73
2022/02/26 02:53:18;;;;;;;;;;;0.90;99.90;;;;;;5070913;28;20341;-72
2022/02/26 02:55:45;;;;;;;;;;;0.90;99.90;;;;;;5071308;28;19909;-73
2022/02/26 02:58:10;;;;;;;;;;;0.90;99.90;;;;;;5071239;28;19920;-73
2022/02/26 03:00:36;;;;;;;;;;;1.00;99.90;;;;;;5080211;28;19908;-73
2022/02/26 03:03:01;;;;;;;;;;;1.10;99.90;;;;;;5073517;28;19934;-73
2022/02/26 03:05:27;;;;;;;;;;;1.10;99.90;;;;;;5070998;28;20097;-75
2022/02/26 03:07:52;;;;;;;;;;;1.10;99.90;;;;;;5071146;28;20375;-73
2022/02/26 03:10:18;;;;;;;;;;;1.00;99.90;;;;;;5073840;28;19958;-73
2022/02/26 03:12:50;;;;;;;;;;;1.00;99.90;;;;;;5074749;28;19908;-73
2022/02/26 03:15:16;;;;;;;;;;;1.00;99.90;;;;;;5074555;28;19912;-73
2022/02/26 03:17:41;;;;;;;;;;;1.00;99.90;;;;;;5074705;28;19912;-73
2022/02/26 03:20:07;;;;;;;;;;;1.00;99.90;;;;;;5074699;28;19931;-73
2022/02/26 03:22:33;;;;;;;;;;;1.10;99.90;;;;;;5074524;28;19912;-73
2022/02/26 03:24:59;;;;;;;;;;;1.00;99.90;;;;;;5074494;28;19954;-73
2022/02/26 03:27:25;;;;;;;;;;;1.00;99.90;;;;;;5074499;28;19962;-73
2022/02/26 03:29:50;;;;;;;;;;;1.00;99.90;;;;;;5072227;28;19915;-72
2022/02/26 03:32:16;;;;;;;;;;;1.00;99.90;;;;;;5079729;28;19908;-72
2022/02/26 03:34:41;;;;;;;;;;;1.00;99.90;;;;;;5072895;28;19908;-73
2022/02/26 03:37:07;;;;;;;;;;;0.90;99.90;;;;;;5074410;28;19924;-73
2022/02/26 03:39:33;;;;;;;;;;;0.90;99.90;;;;;;5073123;28;19997;-73
2022/02/26 03:41:59;;;;;;;;;;;0.90;99.90;;;;;;5074318;28;19908;-73
2022/02/26 03:44:25;;;;;;;;;;;1.00;99.90;;;;;;5067644;28;20369;-73
2022/02/26 03:46:51;;;;;;;;;;;1.00;99.90;;;;;;5074268;28;19909;-73
2022/02/26 03:49:16;;;;;;;;;;;1.00;99.90;;;;;;5074110;28;19955;-73
2022/02/26 03:51:42;;;;;;;;;;;1.00;99.90;;;;;;5074098;28;19915;-73
2022/02/26 03:54:07;;;;;;;;;;;1.00;99.90;;;;;;5074012;28;20212;-73
2022/02/26 03:56:33;;;;;;;;;;;1.00;99.90;;;;;;5074006;28;19920;-73
2022/02/26 03:58:59;;;;;;;;;;;1.00;99.90;;;;;;5073917;28;19908;-73
2022/02/26 04:01:24;;;;;;;;;;;1.00;99.90;;;;;;5075937;28;19954;-73
2022/02/26 04:03:50;;;;;;;;;;;1.00;99.90;;;;;;5073536;28;20402;-73
2022/02/26 04:06:16;;;;;;;;;;;0.90;99.90;;;;;;5073967;28;19915;-73
2022/02/26 04:08:41;;;;;;;;;;;0.90;99.90;;;;;;5073803;28;19916;-73
2022/02/26 04:11:07;;;;;;;;;;;1.00;99.90;;;;;;5073845;28;19958;-73
2022/02/26 04:13:33;;;;;;;;;;;0.90;99.90;;;;;;5073507;28;20305;-73
2022/02/26 04:15:59;;;;;;;;;;;0.90;99.90;;;;;;5073618;28;19924;-73
2022/02/26 04:18:24;;;;;;;;;;;0.80;99.90;;;;;;5073437;28;19912;-73
2022/02/26 04:20:50;;;;;;;;;;;0.80;99.90;;;;;;5073518;28;19934;-73
2022/02/26 04:23:15;;;;;;;;;;;0.70;99.90;;;;;;5073463;28;19918;-73
2022/02/26 04:25:41;;;;;;;;;;;0.70;99.90;;;;;;5073595;28;20357;-73
2022/02/26 04:28:06;;;;;;;;;;;0.60;99.90;;;;;;5072179;28;19908;-73
2022/02/26 04:30:33;;;;;;;;;;;0.60;99.90;;;;;;5071504;28;19995;-73
2022/02/26 04:32:59;;;;;;;;;;;0.50;99.90;;;;;;5073125;28;19951;-73
2022/02/26 04:35:25;;;;;;;;;;;0.30;99.90;;;;;;5073164;28;19955;-72
2022/02/26 04:37:50;;;;;;;;;;;0.30;99.90;;;;;;5073199;28;20376;-73
2022/02/26 04:40:16;;;;;;;;;;;0.40;99.90;;;;;;5072011;28;20246;-73
2022/02/26 04:42:42;;;;;;;;;;;0.40;99.90;;;;;;5073120;28;19965;-73
2022/02/26 04:45:09;;;;;;;;;;;0.50;99.90;;;;;;5072993;28;20327;-73
2022/02/26 04:47:35;;;;;;;;;;;0.40;99.90;;;;;;5071637;28;19908;-73
2022/02/26 04:50:00;;;;;;;;;;;0.50;99.90;;;;;;5073049;28;19908;-73
2022/02/26 04:52:25;;;;;;;;;;;0.40;99.90;;;;;;5072828;28;20391;-73
2022/02/26 04:54:51;;;;;;;;;;;0.50;99.90;;;;;;5072773;28;19912;-73
2022/02/26 04:57:16;;;;;;;;;;;0.50;99.90;;;;;;5069632;28;20468;-73
2022/02/26 04:59:42;;;;;;;;;;;0.40;99.90;;;;;;5072222;28;20285;-73
2022/02/26 05:02:07;;;;;;;;;;;0.30;99.90;;;;;;5078300;28;19912;-73
2022/02/26 05:04:33;;;;;;;;;;;0.40;99.90;;;;;;5072508;28;20379;-73
2022/02/26 05:06:58;;;;;;;;;;;0.50;99.90;;;;;;5072244;28;19908;-73
2022/02/26 05:09:24;;;;;;;;;;;0.50;99.90;;;;;;5072779;28;20334;-73
2022/02/26 05:11:49;;;;;;;;;;;0.50;99.90;;;;;;5072638;28;20341;-73
2022/02/26 05:14:15;;;;;;;;;;;0.50;99.90;;;;;;5072396;28;19908;-73
2022/02/26 05:16:40;;;;;;;;;;;0.60;99.90;;;;;;5072223;28;20014;-73
2022/02/26 05:19:06;;;;;;;;;;;0.70;99.90;;;;;;5072626;28;20319;-73
2022/02/26 05:21:31;;;;;;;;;;;0.70;99.90;;;;;;5076974;28;19908;-72
2022/02/26 05:23:57;;;;;;;;;;;0.70;99.90;;;;;;5072594;28;20452;-73
2022/02/26 05:26:22;;;;;;;;;;;0.60;99.90;;;;;;5068619;28;19916;-73
2022/02/26 05:28:48;;;;;;;;;;;0.60;99.90;;;;;;5077996;28;19966;-73
2022/02/26 05:31:13;;;;;;;;;;;0.50;99.90;;;;;;5071508;28;19931;-72
2022/02/26 05:33:39;;;;;;;;;;;0.50;99.90;;;;;;5071990;28;19916;-73
2022/02/26 05:36:05;;;;;;;;;;;0.50;99.90;;;;;;5072203;28;19909;-73
2022/02/26 05:38:30;;;;;;;;;;;0.30;99.90;;;;;;5072118;28;20313;-74
2022/02/26 05:40:56;;;;;;;;;;;0.10;99.90;;;;;;5072185;28;20327;-73
2022/02/26 05:43:21;;;;;;;;;;;0.20;99.90;;;;;;5072837;28;19908;-73
2022/02/26 05:45:47;;;;;;;;;;;0.20;99.90;;;;;;5074296;28;19916;-73
2022/02/26 05:48:13;;;;;;;;;;;0.20;99.90;;;;;;5072533;28;19915;-73
2022/02/26 05:50:38;;;;;;;;;;;0.30;99.90;;;;;;5071958;28;19916;-73
2022/02/26 05:53:04;;;;;;;;;;;0.30;99.90;;;;;;5071882;28;20357;-73
2022/02/26 05:55:29;;;;;;;;;;;0.30;99.90;;;;;;5071405;28;20258;-73
2022/02/26 05:57:55;;;;;;;;;;;0.40;99.90;;;;;;5074588;28;19912;-72
2022/02/26 06:00:20;;;;;;;;;;;0.30;99.90;;;;;;5071878;28;19971;-73
2022/02/26 06:02:46;;;;;;;;;;;0.40;99.90;;;;;;5065152;28;19908;-73
2022/02/26 06:05:11;;;;;;;;;;;0.50;99.90;;;;;;5071650;28;19909;-73
2022/02/26 06:07:37;;;;;;;;;;;0.50;99.90;;;;;;5071718;28;19920;-72
2022/02/26 06:10:03;;;;;;;;;;;0.50;99.90;;;;;;5071801;28;20313;-73
2022/02/26 06:12:29;;;;;;;;;;;0.50;99.90;;;;;;5072022;28;19913;-73
2022/02/26 06:14:55;;;;;;;;;;;0.50;99.90;;;;;;5071404;28;19934;-73
2022/02/26 06:17:21;;;;;;;;;;;0.50;99.90;;;;;;5071736;28;19939;-73
2022/02/26 06:19:46;;;;;;;;;;;0.50;99.90;;;;;;5071227;28;19962;-73
2022/02/26 06:22:12;;;;;;;;;;;0.40;99.90;;;;;;5071494;28;19915;-73
2022/02/26 06:24:37;;;;;;;;;;;0.20;99.90;;;;;;5071168;28;19912;-72
2022/02/26 06:27:03;;;;;;;;;;;0.20;99.90;;;;;;5070908;28;19991;-73
2022/02/26 06:29:29;;;;;;;;;;;0.20;99.90;;;;;;5070426;28;20312;-73
2022/02/26 06:31:54;;;;;;;;;;;0.30;99.90;;;;;;5070285;28;20419;-73
2022/02/26 06:34:20;;;;;;;;;;;0.30;99.90;;;;;;5071308;28;19909;-73
2022/02/26 06:36:46;;;;;;;;;;;0.30;99.90;;;;;;5071389;28;19920;-73
2022/02/26 06:39:11;;;;;;;;;;;0.30;99.90;;;;;;5071798;28;19908;-73
2022/02/26 06:41:37;;;;;;;;;;;0.30;99.90;;;;;;5071400;28;19956;-72
2022/02/26 06:44:03;;;;;;;;;;;0.40;99.90;;;;;;5073862;28;19919;-72
2022/02/26 06:46:28;;;;;;;;;;;0.50;99.90;;;;;;5075795;28;19931;-72
2022/02/26 06:48:54;;;;;;;;;;;0.60;99.90;;;;;;5070882;28;19963;-73
2022/02/26 06:51:19;;;;;;;;;;;0.70;99.90;;;;;;5073610;28;19966;-73
2022/02/26 06:53:45;;;;;;;;;;;0.80;99.90;;;;;;5077471;28;20276;-73
2022/02/26 06:56:11;;;;;;;;;;;0.70;99.90;;;;;;5072613;28;20367;-73
2022/02/26 06:58:37;;;;;;;;;;;0.70;99.90;;;;;;5074757;28;19989;-72
2022/02/26 07:01:04;;;;;;;;;;;0.80;99.90;;;;;;5068759;28;19932;-73
2022/02/26 07:03:29;;;;;;;;;;;0.80;99.90;;;;;;5068757;28;19909;-73
2022/02/26 07:05:55;;;;;;;;;;;0.80;99.90;;;;;;5078253;28;20433;-73
2022/02/26 07:08:21;;;;;;;;;;;0.80;99.90;;;;;;5074395;28;19909;-73
2022/02/26 07:10:46;;;;;;;;;;;0.80;99.90;;;;;;5074824;28;19960;-75
2022/02/26 07:13:12;;;;;;;;;;;0.90;99.90;;;;;;5074598;28;19932;-73
2022/02/26 07:15:38;;;;;;;;;;;1.00;99.90;;;;;;5074392;28;19916;-72
2022/02/26 07:18:03;;;;;;;;;;;1.10;99.90;;;;;;5074329;28;19959;-73
2022/02/26 07:20:29;;;;;;;;;;;1.20;99.90;;;;;;5073046;28;20312;-73
2022/02/26 07:22:54;;;;;;;;;;;1.30;99.90;;;;;;5072641;28;19912;-73
2022/02/26 07:25:20;;;;;;;;;;;1.40;99.90;;;;;;5073611;28;19917;-74
2022/02/26 07:27:45;;;;;;;;;;;1.40;99.90;;;;;;5076361;28;20361;-73
2022/02/26 07:30:11;;;;;;;;;;;1.40;99.90;;;;;;5074358;28;19908;-74
2022/02/26 07:32:36;;;;;;;;;;;1.40;99.90;;;;;;5074548;28;19908;-74
2022/02/26 07:35:04;;;;;;;;;;;1.50;99.90;;;;;;5074060;28;19962;-74
2022/02/26 07:37:30;;;;;;;;;;;1.50;99.90;;;;;;5074305;28;20556;-74
2022/02/26 07:39:55;;;;;;;;;;;1.60;99.90;;;;;;5074295;28;19909;-74
2022/02/26 07:42:21;;;;;;;;;;;1.60;99.90;;;;;;5074539;28;19909;-74
2022/02/26 07:44:46;;;;;;;;;;;1.70;99.90;;;;;;5073903;28;19915;-74
2022/02/26 07:47:12;;;;;;;;;;;1.80;99.90;;;;;;5073985;28;19909;-74
2022/02/26 07:49:37;;;;;;;;;;;1.80;99.90;;;;;;5074614;28;20038;-74
2022/02/26 07:52:03;;;;;;;;;;;1.90;99.90;;;;;;5074943;28;19908;-74
2022/02/26 07:54:28;;;;;;;;;;;2.00;99.90;;;;;;5074035;28;19912;-74
2022/02/26 07:56:54;;;;;;;;;;;2.00;99.90;;;;;;5074292;28;19912;-73
2022/02/26 07:59:19;;;;;;;;;;;2.20;99.90;;;;;;5074079;28;19942;-74
2022/02/26 08:01:46;;;;;;;;;;;2.20;99.90;;;;;;5069855;28;19908;-74
2022/02/26 08:04:11;;;;;;;;;;;2.30;99.90;;;;;;5073496;28;19935;-74
2022/02/26 08:06:37;;;;;;;;;;;2.30;99.90;;;;;;5068029;28;20361;-73
2022/02/26 08:09:03;;;;;;;;;;;2.30;99.90;;;;;;5064528;28;19919;-74
2022/02/26 08:11:31;;;;;;;;;;;2.20;99.90;;;;;;5066690;28;19913;-74
2022/02/26 08:13:59;;;;;;;;;;;2.40;99.90;;;;;;5071772;28;19912;-74
2022/02/26 08:16:25;;;;;;;;;;;2.40;99.90;;;;;;5073461;28;20016;-73
2022/02/26 08:18:50;;;;;;;;;;;2.60;99.90;;;;;;5067007;28;20056;-74
2022/02/26 08:21:16;;;;;;;;;;;2.50;99.90;;;;;;5069330;28;19909;-73
2022/02/26 08:23:41;;;;;;;;;;;2.40;99.90;;;;;;5072935;28;19915;-73
2022/02/26 08:26:07;;;;;;;;;;;2.20;99.90;;;;;;5068604;28;19920;-72
2022/02/26 08:28:32;;;;;;;;;;;2.20;99.90;;;;;;5069449;28;19912;-74
2022/02/26 08:30:58;;;;;;;;;;;2.30;99.90;;;;;;5072735;28;20015;-74
2022/02/26 08:33:23;;;;;;;;;;;2.50;99.90;;;;;;5072259;28;19969;-74
2022/02/26 08:35:49;;;;;;;;;;;2.50;99.90;;;;;;5057031;28;19959;-73
2022/02/26 08:38:14;;;;;;;;;;;2.60;99.90;;;;;;5057378;28;20400;-74
2022/02/26 08:40:40;;;;;;;;;;;2.80;99.90;;;;;;5057184;28;20005;-74
2022/02/26 08:43:05;;;;;;;;;;;2.90;99.90;;;;;;5059398;28;19916;-74
2022/02/26 08:45:31;;;;;;;;;;;3.00;99.90;;;;;;5071619;28;19995;-75
2022/02/26 08:47:56;;;;;;;;;;;3.30;99.90;;;;;;5072861;28;19947;-74
2022/02/26 08:50:23;;;;;;;;;;;3.40;99.90;;;;;;5073170;28;20357;-74
2022/02/26 08:52:49;;;;;;;;;;;3.40;99.90;;;;;;5073025;28;20408;-75
2022/02/26 08:55:14;;;;;;;;;;;3.60;99.90;;;;;;5071623;28;19908;-75
2022/02/26 08:57:40;;;;;;;;;;;3.80;99.90;;;;;;5080639;28;20345;-75
2022/02/26 09:00:09;;;;;;;;;;;3.80;99.90;;;;;;5070625;28;19920;-75
2022/02/26 09:02:34;;;;;;;;;;;3.80;99.90;;;;;;5072910;28;20001;-75
2022/02/26 09:05:00;;;;;;;;;;;3.80;99.90;;;;;;5072546;28;20361;-75
2022/02/26 09:07:27;;;;;;;;;;;3.80;99.90;;;;;;5070650;28;19915;-75
2022/02/26 09:09:52;;;;;;;;;;;4.20;99.90;;;;;;5072746;28;19952;-75
2022/02/26 09:12:18;;;;;;;;;;;4.80;99.90;;;;;;5070892;28;20022;-75
2022/02/26 09:14:43;;;;;;;;;;;5.60;99.90;;;;;;5066867;28;19909;-75
2022/02/26 09:17:09;;;;;;;;;;;5.10;99.90;;;;;;5072540;28;19935;-75
2022/02/26 09:19:36;;;;;;;;;;;6.20;99.90;;;;;;5072748;28;19909;-75
2022/02/26 09:22:03;;;;;;;;;;;6.20;99.90;;;;;;5072383;28;19916;-75
2022/02/26 09:24:28;;;;;;;;;;;5.70;99.90;;;;;;5072247;28;19919;-75
2022/02/26 09:26:54;;;;;;;;;;;5.40;99.90;;;;;;5075365;28;19995;-74
2022/02/26 09:29:20;;;;;;;;;;;4.80;99.90;;;;;;5076769;28;19909;-75
2022/02/26 09:31:50;;;;;;;;;;;4.50;99.90;;;;;;5072387;28;19908;-75
2022/02/26 09:34:16;;;;;;;;;;;4.30;99.90;;;;;;5072280;28;19908;-75
2022/02/26 09:36:42;;;;;;;;;;;4.40;99.90;;;;;;5072304;28;20331;-75
2022/02/26 09:39:07;;;;;;;;;;;4.10;99.90;;;;;;5071976;28;19912;-75
2022/02/26 09:41:33;;;;;;;;;;;4.30;99.90;;;;;;5072116;28;19908;-75
2022/02/26 09:43:59;;;;;;;;;;;5.30;99.90;;;;;;5071771;28;19915;-74
2022/02/26 09:46:24;;;;;;;;;;;9.50;97.50;;;;;;5072241;28;19995;-73
2022/02/26 09:48:50;;;;;;;;;;;11.10;89.70;;;;;;5072037;28;19916;-74
2022/02/26 09:51:16;;;;;;;;;;;10.20;81.60;;;;;;5071848;28;20285;-74
2022/02/26 09:53:42;;;;;;;;;;;8.50;88.50;;;;;;5071819;28;19909;-74
2022/02/26 09:56:07;;;;;;;;;;;7.30;90.60;;;;;;5076114;28;20039;-74
2022/02/26 09:58:33;;;;;;;;;;;6.10;91.70;;;;;;5072015;28;20353;-73
2022/02/26 10:00:59;;;;;;;;;;;5.00;93.00;;;;;;5072109;28;19952;-74
2022/02/26 10:03:35;;;;;;;;;;;4.60;95.60;;;;;;5071760;28;19970;-73
2022/02/26 10:06:04;;;;;;;;;;;4.20;96.10;;;;;;5066427;28;19916;-73
2022/02/26 10:08:36;;;;;;;;;;;4.20;96.50;;;;;;5071660;28;20338;-74
2022/02/26 10:11:01;;;;;;;;;;;8.60;92.20;;;;;;5070268;28;20369;-75
2022/02/26 10:13:27;;;;;;;;;;;11.90;77.40;;;;;;5071540;28;20066;-74
2022/02/26 10:15:52;;;;;;;;;;;12.10;72.60;;;;;;5071976;28;19917;-75
2022/02/26 10:18:18;;;;;;;;;;;12.80;74.20;;;;;;5071467;28;20011;-75
2022/02/26 10:20:44;;;;;;;;;;;13.10;68.20;;;;;;5071892;28;19931;-75
2022/02/26 10:23:11;;;;;;;;;;;11.60;73.80;;;;;;5072399;28;20050;-75
2022/02/26 10:25:37;;;;;;;;;;;10.70;74.80;;;;;;5072075;28;20377;-75
2022/02/26 10:28:03;;;;;;;;;;;8.90;75.60;;;;;;5071755;28;19962;-75
2022/02/26 10:30:30;;;;;;;;;;;8.10;77.20;;;;;;5065498;28;19912;-75
2022/02/26 10:33:04;;;;;;;;;;;11.40;68.80;;;;;;5071968;28;19962;-74
2022/02/26 10:35:47;;;;;;;;;;;9.60;72.70;;;;;;5072048;28;19916;-75
2022/02/26 10:38:14;;;;;;;;;;;8.00;79.90;;;;;;5071787;28;19917;-75
2022/02/26 10:40:51;;;;;;;;;;;8.20;78.90;;;;;;5071674;28;19979;-75
2022/02/26 10:43:35;;;;;;;;;;;6.50;81.00;;;;;;5071519;28;19915;-74
2022/02/26 10:46:22;;;;;;;;;;;5.40;82.60;;;;;;5071346;28;20424;-75
2022/02/26 10:48:52;;;;;;;;;;;5.60;84.90;;;;;;5073415;28;19954;-75
2022/02/26 10:51:22;;;;;;;;;;;5.60;88.60;;;;;;5071496;28;20324;-75
2022/02/26 10:53:48;;;;;;;;;;;6.00;86.40;;;;;;5071366;28;20032;-74
2022/02/26 10:56:15;;;;;;;;;;;5.80;86.50;;;;;;5072881;28;20393;-74
2022/02/26 10:58:41;;;;;;;;;;;5.20;87.50;;;;;;5076683;28;19924;-75
2022/02/26 11:01:07;;;;;;;;;;;5.40;88.40;;;;;;5071328;28;19908;-74
2022/02/26 11:03:34;;;;;;;;;;;5.20;87.10;;;;;;5070931;28;19909;-75
2022/02/26 11:06:00;;;;;;;;;;;5.10;86.80;;;;;;5071264;28;19915;-75
2022/02/26 11:08:26;;;;;;;;;;;5.20;85.50;;;;;;5071240;28;19908;-74
2022/02/26 11:10:52;;;;;;;;;;;5.10;83.30;;;;;;5070374;28;20369;-75
2022/02/26 11:13:19;;;;;;;;;;;9.40;79.00;;;;;;5070801;28;19919;-75
2022/02/26 11:15:45;;;;;;;;;;;12.70;64.90;;;;;;5070623;28;19917;-75
2022/02/26 11:18:12;;;;;;;;;;;13.60;62.20;;;;;;5071008;28;19913;-74
2022/02/26 11:20:38;;;;;;;;;;;15.10;57.30;;;;;;5071245;28;19908;-75
2022/02/26 11:23:04;;;;;;;;;;;15.40;52.80;;;;;;5071159;28;20325;-75
2022/02/26 11:25:29;;;;;;;;;;;14.50;58.60;;;;;;5071028;28;19958;-75
2022/02/26 11:27:55;;;;;;;;;;;13.30;58.10;;;;;;5070699;28;19962;-75
2022/02/26 11:30:24;;;;;;;;;;;13.10;58.70;;;;;;5073218;28;19974;-75
2022/02/26 11:32:49;;;;;;;;;;;13.90;58.20;;;;;;5073272;28;20296;-75
2022/02/26 11:35:20;;;;;;;;;;;14.90;54.60;;;;;;5074456;28;19908;-74
2022/02/26 11:37:49;;;;;;;;;;;11.60;59.90;;;;;;5074654;28;19913;-74
2022/02/26 11:40:15;;;;;;;;;;;11.20;59.50;;;;;;5073279;28;19920;-75
2022/02/26 11:42:41;;;;;;;;;;;10.60;61.80;;;;;;5074431;28;19908;-75
2022/02/26 11:45:10;;;;;;;;;;;9.10;65.40;;;;;;5074419;28;20274;-75
2022/02/26 11:47:38;;;;;;;;;;;11.30;58.70;;;;;;5074421;28;19908;-75
2022/02/26 11:50:03;;;;;;;;;;;14.30;53.20;;;;;;5074786;28;20380;-75
2022/02/26 11:52:46;;;;;;;;;;;14.60;52.50;;;;;;5074505;28;20001;-76
2022/02/26 11:55:20;;;;;;;;;;;11.50;57.30;;;;;;5074538;28;20003;-75
2022/02/26 11:57:47;;;;;;;;;;;8.80;66.90;;;;;;5071487;28;19924;-75
2022/02/26 12:00:14;;;;;;;;;;;7.70;72.10;;;;;;5074403;28;19908;-74
2022/02/26 12:02:40;;;;;;;;;;;7.60;71.20;;;;;;5074044;28;19934;-75
2022/02/26 12:05:07;;;;;;;;;;;6.40;68.60;;;;;;5074755;28;20007;-74
2022/02/26 12:07:38;;;;;;;;;;;6.30;73.40;;;;;;5073453;28;19959;-74
2022/02/26 12:10:05;;;;;;;;;;;6.30;73.80;;;;;;5075848;28;19962;-75
2022/02/26 12:12:35;;;;;;;;;;;6.00;74.80;;;;;;5073837;28;19913;-74
2022/02/26 12:15:01;;;;;;;;;;;5.80;72.50;;;;;;5073743;28;20365;-75
2022/02/26 12:17:27;;;;;;;;;;;6.00;75.30;;;;;;5073572;28;19982;-74
2022/02/26 12:19:54;;;;;;;;;;;6.10;75.10;;;;;;5073830;28;19912;-74
2022/02/26 12:22:21;;;;;;;;;;;6.00;74.80;;;;;;5073682;28;19915;-74
2022/02/26 12:24:53;;;;;;;;;;;5.80;74.50;;;;;;5073370;28;20346;-75
2022/02/26 12:27:39;;;;;;;;;;;5.80;72.10;;;;;;5073887;28;19915;-75
2022/02/26 12:30:11;;;;;;;;;;;6.00;74.00;;;;;;5072683;28;19908;-75
2022/02/26 12:32:56;;;;;;;;;;;6.10;74.40;;;;;;5072301;28;19936;-74
2022/02/26 12:35:24;;;;;;;;;;;6.40;74.20;;;;;;5073195;28;20373;-74
2022/02/26 12:37:49;;;;;;;;;;;6.20;73.70;;;;;;5073245;28;19966;-74
2022/02/26 12:40:19;;;;;;;;;;;6.30;73.70;;;;;;5073105;28;19908;-74
2022/02/26 12:42:46;;;;;;;;;;;6.60;73.60;;;;;;5071687;28;19919;-75
2022/02/26 12:45:12;;;;;;;;;;;6.50;73.60;;;;;;5073150;28;20000;-74
2022/02/26 12:47:38;;;;;;;;;;;5.80;73.00;;;;;;5072940;28;19913;-74
2022/02/26 12:50:05;;;;;;;;;;;6.10;73.70;;;;;;5073092;28;19915;-74
2022/02/26 12:52:32;;;;;;;;;;;6.30;74.00;;;;;;5072974;28;20069;-74
2022/02/26 12:54:59;;;;;;;;;;;6.20;73.20;;;;;;5071326;28;20440;-75
2022/02/26 12:57:33;;;;;;;;;;;5.70;74.00;;;;;;5071371;28;20269;-74
2022/02/26 12:59:58;;;;;;;;;;;5.40;75.30;;;;;;5074479;28;19912;-74
2022/02/26 13:02:24;;;;;;;;;;;5.20;72.30;;;;;;5072705;28;20448;-74
2022/02/26 13:04:59;;;;;;;;;;;5.40;76.70;;;;;;5072537;28;19908;-75
2022/02/26 13:07:27;;;;;;;;;;;5.40;76.80;;;;;;5072595;28;20358;-74
2022/02/26 13:09:54;;;;;;;;;;;5.30;75.00;;;;;;5072517;28;20004;-74
2022/02/26 13:12:23;;;;;;;;;;;5.20;75.10;;;;;;5072151;28;19960;-73
2022/02/26 13:14:53;;;;;;;;;;;5.30;76.70;;;;;;5072386;28;20007;-75
2022/02/26 13:17:19;;;;;;;;;;;5.30;75.90;;;;;;5072268;28;19916;-75
2022/02/26 13:19:44;;;;;;;;;;;5.40;76.30;;;;;;5070595;28;19915;-75
2022/02/26 13:22:10;;;;;;;;;;;5.70;76.10;;;;;;5072410;28;20365;-74
2022/02/26 13:24:36;;;;;;;;;;;5.50;75.10;;;;;;5073168;28;19915;-74
2022/02/26 13:27:03;;;;;;;;;;;5.20;78.30;;;;;;5073706;28;20362;-74
2022/02/26 13:29:29;;;;;;;;;;;5.10;76.70;;;;;;5075348;28;20289;-74
2022/02/26 13:31:54;;;;;;;;;;;5.10;76.50;;;;;;5072912;28;19909;-74
2022/02/26 13:34:20;;;;;;;;;;;4.80;76.80;;;;;;5072746;28;20387;-74
2022/02/26 13:36:50;;;;;;;;;;;4.80;78.10;;;;;;5071286;28;19908;-74
2022/02/26 13:39:16;;;;;;;;;;;4.60;75.50;;;;;;5073054;28;20270;-74
2022/02/26 13:41:42;;;;;;;;;;;4.70;77.10;;;;;;5072655;28;19999;-74
2022/02/26 13:44:08;;;;;;;;;;;5.00;77.70;;;;;;5072492;28;20410;-74
2022/02/26 13:46:44;;;;;;;;;;;5.20;75.80;;;;;;5072524;28;20404;-74
2022/02/26 13:49:12;;;;;;;;;;;5.30;74.10;;;;;;5071174;28;19987;-74
2022/02/26 13:51:38;;;;;;;;;;;5.50;74.60;;;;;;5072139;28;19908;-75
2022/02/26 13:54:07;;;;;;;;;;;5.50;74.20;;;;;;5071969;28;20269;-74
2022/02/26 13:56:34;;;;;;;;;;;5.70;74.70;;;;;;5072246;28;20381;-74
2022/02/26 13:58:59;;;;;;;;;;;5.80;75.20;;;;;;5080182;28;19999;-75
2022/02/26 14:01:25;;;;;;;;;;;5.70;76.00;;;;;;5072315;28;19940;-74
2022/02/26 14:03:54;;;;;;;;;;;5.60;76.30;;;;;;5072070;28;20419;-74
2022/02/26 14:06:33;;;;;;;;;;;5.60;77.20;;;;;;5072559;28;19931;-75
2022/02/26 14:08:58;;;;;;;;;;;5.30;76.30;;;;;;5072801;28;19913;-74
2022/02/26 14:11:31;;;;;;;;;;;4.80;78.20;;;;;;5072497;28;19970;-74
2022/02/26 14:13:57;;;;;;;;;;;4.70;78.20;;;;;;5070878;28;19912;-74
2022/02/26 14:16:26;;;;;;;;;;;4.40;79.40;;;;;;5071577;28;19923;-74
2022/02/26 14:18:51;;;;;;;;;;;4.20;79.50;;;;;;5071597;28;19958;-74
2022/02/26 14:21:18;;;;;;;;;;;4.10;81.20;;;;;;5071622;28;19913;-74
2022/02/26 14:23:45;;;;;;;;;;;4.20;80.10;;;;;;5071390;28;20353;-75
2022/02/26 14:26:14;;;;;;;;;;;4.50;77.70;;;;;;5070839;28;19909;-74